Time;durP1;ratioP1;P1;durP2;ratioP2;P2;SDS_P1;SDS_P2;PMS_P1;PMS_P2;Temp;Humidity;BMP_temperature;BMP_pressure;BME280_temperature;BME280_humidity;BME280_pressure;Samples;Min_cycle;Max_cycle;Signal;HPM_P1;HPM_P2
2023/02/18 00:01:51;;;;;;;2.63;2.40;;;;;;;7.60;97.01;99785.75;5093797;28;20120;-65
2023/02/18 00:04:20;;;;;;;3.67;3.13;;;;;;;7.53;96.75;99773.78;5093678;28;20046;-65
2023/02/18 00:06:50;;;;;;;3.13;2.17;;;;;;;7.61;96.93;99762.03;5093570;28;20066;-65
2023/02/18 00:09:21;;;;;;;3.95;3.55;;;;;;;7.68;96.34;99763.81;5093705;28;20044;-65
2023/02/18 00:11:49;;;;;;;1.43;1.33;;;;;;;7.93;96.54;99770.03;5093928;28;20040;-64
2023/02/18 00:14:18;;;;;;;2.00;1.83;;;;;;;8.18;97.02;99761.00;5093625;28;20063;-65
2023/02/18 00:16:47;;;;;;;1.15;1.10;;;;;;;8.50;96.52;99757.06;5093277;28;20036;-64
2023/02/18 00:19:19;;;;;;;1.73;1.60;;;;;;;8.58;96.36;99758.84;5093900;28;20067;-64
2023/02/18 00:21:50;;;;;;;1.52;1.40;;;;;;;8.55;95.20;99748.66;5093802;28;20559;-63
2023/02/18 00:24:18;;;;;;;3.13;2.03;;;;;;;8.69;95.68;99752.16;5093545;28;20054;-64
2023/02/18 00:26:51;;;;;;;7.35;3.60;;;;;;;8.85;95.58;99752.28;5092228;28;20097;-65
2023/02/18 00:29:21;;;;;;;2.15;1.95;;;;;;;8.84;94.21;99753.97;5093508;28;20055;-64
2023/02/18 00:31:50;;;;;;;0.95;0.95;;;;;;;8.89;94.28;99747.22;5092250;28;20032;-63
2023/02/18 00:34:19;;;;;;;4.50;2.45;;;;;;;9.12;93.42;99762.63;5093704;28;20404;-66
2023/02/18 00:36:47;;;;;;;1.85;0.98;;;;;;;9.18;93.45;99748.25;5093220;28;20502;-65
2023/02/18 00:39:17;;;;;;;1.83;1.65;;;;;;;9.18;93.20;99748.25;5092149;28;20036;-64
2023/02/18 00:41:46;;;;;;;1.80;1.27;;;;;;;9.26;92.76;99749.13;5093315;28;20078;-64
2023/02/18 00:44:15;;;;;;;2.08;1.92;;;;;;;9.28;92.09;99747.47;5092148;28;20040;-64
2023/02/18 00:46:46;;;;;;;1.13;1.03;;;;;;;9.29;91.51;99746.63;5092413;28;20036;-65
2023/02/18 00:49:17;;;;;;;2.45;1.95;;;;;;;9.26;91.80;99751.69;5093226;28;20105;-66
2023/02/18 00:51:45;;;;;;;4.68;1.52;;;;;;;9.31;90.93;99750.00;5093247;28;20051;-65
2023/02/18 00:54:14;;;;;;;1.98;1.40;;;;;;;9.26;90.71;99727.94;5093369;28;20115;-65
2023/02/18 00:56:44;;;;;;;2.50;2.30;;;;;;;9.40;90.55;99741.59;5093492;28;20048;-65
2023/02/18 00:59:13;;;;;;;2.25;2.10;;;;;;;9.38;90.14;99735.63;5093174;28;20052;-64
2023/02/18 01:01:42;;;;;;;1.05;0.95;;;;;;;9.38;89.95;99735.63;5091921;28;20079;-65
2023/02/18 01:04:11;;;;;;;2.38;1.23;;;;;;;9.39;89.63;99727.13;5092239;28;20434;-65
2023/02/18 01:06:40;;;;;;;0.77;0.63;;;;;;;9.37;89.89;99722.03;5093167;28;20425;-65
2023/02/18 01:09:10;;;;;;;5.20;1.40;;;;;;;9.36;89.79;99712.69;5093121;28;20040;-65
2023/02/18 01:11:39;;;;;;;1.10;1.02;;;;;;;9.36;88.93;99714.38;5093305;28;20059;-65
2023/02/18 01:14:09;;;;;;;1.00;1.00;;;;;;;9.44;89.09;99725.47;5091841;28;20036;-65
2023/02/18 01:16:38;;;;;;;1.15;1.05;;;;;;;9.53;88.80;99714.44;5091707;28;20551;-66
2023/02/18 01:19:09;;;;;;;1.20;1.10;;;;;;;9.55;88.73;99718.69;5097025;28;20032;-65
2023/02/18 01:21:39;;;;;;;2.45;2.13;;;;;;;9.53;88.59;99717.00;5095491;28;20493;-64
2023/02/18 01:24:08;;;;;;;2.97;1.55;;;;;;;9.48;88.16;99726.34;5096644;28;20044;-66
2023/02/18 01:26:37;;;;;;;1.10;0.93;;;;;;;9.43;88.16;99719.50;5096484;28;20123;-65
2023/02/18 01:29:06;;;;;;;1.25;0.73;;;;;;;9.48;88.34;99711.06;5096772;28;20429;-66
2023/02/18 01:31:36;;;;;;;0.88;0.88;;;;;;;9.59;88.46;99711.94;5096378;28;20048;-65
2023/02/18 01:34:05;;;;;;;1.67;1.17;;;;;;;9.69;87.94;99711.13;5096440;28;20048;-64
2023/02/18 01:36:34;;;;;;;1.50;1.40;;;;;;;9.72;88.31;99711.97;5096348;28;20048;-63
2023/02/18 01:39:05;;;;;;;1.40;1.30;;;;;;;9.86;87.79;99705.22;5096255;28;20138;-64
2023/02/18 01:41:34;;;;;;;0.70;0.70;;;;;;;9.86;87.25;99706.94;5096234;28;20069;-64
2023/02/18 01:44:16;;;;;;;1.30;1.20;;;;;;;9.85;87.43;99705.22;5096068;28;20066;-64
2023/02/18 01:46:48;;;;;;;1.33;0.85;;;;;;;9.87;87.37;99706.06;5096171;28;20585;-64
2023/02/18 01:49:21;;;;;;;0.65;0.65;;;;;;;9.91;87.42;99718.00;5095034;28;20501;-64
2023/02/18 01:51:54;;;;;;;1.85;1.20;;;;;;;9.92;87.48;99704.38;5096083;28;20059;-64
2023/02/18 01:54:29;;;;;;;0.63;0.63;;;;;;;10.01;87.04;99704.41;5096049;28;20064;-65
2023/02/18 01:57:03;;;;;;;0.52;0.52;;;;;;;10.09;87.17;99708.69;5095971;28;20132;-65
2023/02/18 01:59:37;;;;;;;0.90;0.90;;;;;;;10.09;86.89;99711.22;5094768;28;20044;-65
2023/02/18 02:02:13;;;;;;;1.95;1.35;;;;;;;10.10;86.98;99705.25;5095040;28;20051;-64
2023/02/18 02:04:42;;;;;;;1.75;1.15;;;;;;;10.15;86.68;99705.28;5094572;28;20512;-64
2023/02/18 02:07:11;;;;;;;1.00;1.00;;;;;;;10.11;86.56;99711.22;5096392;28;20036;-64
2023/02/18 02:09:42;;;;;;;0.75;0.75;;;;;;;10.07;86.42;99709.53;5094561;28;20036;-64
2023/02/18 02:12:28;;;;;;;0.40;0.40;;;;;;;10.10;86.65;99700.16;5096205;28;20134;-63
2023/02/18 02:15:19;;;;;;;0.38;0.38;;;;;;;10.19;86.78;99704.47;5095728;28;20048;-64
2023/02/18 02:18:05;;;;;;;0.80;0.60;;;;;;;10.16;86.82;99696.81;5095364;28;20060;-64
2023/02/18 02:21:02;;;;;;;0.40;0.40;;;;;;;10.18;86.68;99707.84;5095855;28;20071;-64
2023/02/18 02:24:04;;;;;;;0.32;0.32;;;;;;;10.26;86.60;99711.28;5059600;28;20109;-65
2023/02/18 02:27:06;;;;;;;0.30;0.30;;;;;;;10.20;86.38;99716.34;5093494;28;20046;-66
2023/02/18 02:30:01;;;;;;;0.22;0.22;;;;;;;10.13;86.15;99709.56;5067897;28;20040;-65
2023/02/18 02:33:02;;;;;;;0.30;0.30;;;;;;;10.18;86.39;99712.09;5095363;28;20055;-65
2023/02/18 02:35:38;;;;;;;1.13;0.75;;;;;;;10.13;86.54;99722.31;5093984;28;20058;-63
2023/02/18 02:38:12;;;;;;;0.63;0.63;;;;;;;10.31;86.19;99732.53;5093981;28;20052;-64
2023/02/18 02:40:49;;;;;;;0.88;0.75;;;;;;;10.39;86.12;99733.38;5093949;28;20048;-64
2023/02/18 02:43:27;;;;;;;0.30;0.30;;;;;;;10.48;85.95;99728.31;5095050;28;20050;-64
2023/02/18 02:46:02;;;;;;;0.70;0.68;;;;;;;10.41;85.20;99726.59;5095337;28;20098;-65
2023/02/18 02:48:42;;;;;;;0.47;0.38;;;;;;;10.34;85.06;99755.47;5095023;28;20130;-64
2023/02/18 02:51:18;;;;;;;0.75;0.75;;;;;;;10.17;85.74;99757.19;5095278;28;20051;-64
2023/02/18 02:53:47;;;;;;;1.42;1.23;;;;;;;10.10;85.87;99760.53;5093659;28;20130;-64
2023/02/18 02:56:17;;;;;;;0.93;0.93;;;;;;;10.19;85.92;99763.13;5094730;28;20040;-66
2023/02/18 02:58:58;;;;;;;0.40;0.40;;;;;;;10.11;85.69;99767.31;5093641;28;20051;-66
2023/02/18 03:01:41;;;;;;;0.50;0.50;;;;;;;9.89;86.26;99780.84;5093530;28;20048;-66
2023/02/18 03:04:31;;;;;;;0.50;0.43;;;;;;;9.80;86.57;99793.56;5093753;28;20039;-66
2023/02/18 03:07:31;;;;;;;0.40;0.40;;;;;;;9.81;87.19;99813.13;5094535;28;20048;-64
2023/02/18 03:10:26;;;;;;;0.50;0.50;;;;;;;9.81;87.30;99802.94;5094585;28;20059;-64
2023/02/18 03:13:04;;;;;;;1.17;0.77;;;;;;;9.80;87.86;99806.31;5094568;28;20052;-63
2023/02/18 03:15:40;;;;;;;;;;;;;;;9.78;87.92;99813.09;5094878;28;20078;-63
2023/02/18 03:18:18;;;;;;;0.20;0.20;;;;;;;9.79;88.84;99804.63;5094235;28;19927;-62
2023/02/18 03:20:55;;;;;;;0.40;0.40;;;;;;;9.77;89.17;99796.09;5093504;28;20062;-62
2023/02/18 03:23:30;;;;;;;0.32;0.32;;;;;;;9.76;89.26;99802.06;5094296;28;20040;-62
2023/02/18 03:25:59;;;;;;;1.40;1.23;;;;;;;9.74;90.14;99813.94;5093368;28;20048;-63
2023/02/18 03:28:31;;;;;;;0.30;0.30;;;;;;;9.74;90.01;99816.50;5095128;28;20048;-63
2023/02/18 03:31:09;;;;;;;0.30;0.30;;;;;;;9.68;90.67;99813.91;5094564;28;20102;-63
2023/02/18 03:33:44;;;;;;;0.70;0.70;;;;;;;9.61;90.98;99812.16;5093292;28;20044;-63
2023/02/18 03:36:13;;;;;;;1.25;0.93;;;;;;;9.60;91.01;99813.03;5092900;28;20525;-64
2023/02/18 03:38:54;;;;;;;0.40;0.40;;;;;;;9.51;91.04;99802.75;5092941;28;20058;-63
2023/02/18 03:41:23;;;;;;;0.68;0.68;;;;;;;9.57;92.30;99813.84;5093713;28;20067;-63
2023/02/18 03:43:54;;;;;;;0.90;0.83;;;;;;;9.53;92.00;99816.34;5093056;28;20371;-62
2023/02/18 03:46:23;;;;;;;0.85;0.85;;;;;;;9.44;92.59;99818.03;5094305;28;20082;-63
2023/02/18 03:48:52;;;;;;;0.25;0.25;;;;;;;9.43;92.35;99825.63;5092775;28;20074;-63
2023/02/18 03:51:22;;;;;;;0.30;0.30;;;;;;;9.50;93.13;99827.41;5092812;28;20121;-63
2023/02/18 03:53:52;;;;;;;0.25;0.25;;;;;;;9.47;92.78;99816.34;5093861;28;20051;-63
2023/02/18 03:56:21;;;;;;;0.40;0.40;;;;;;;9.47;93.03;99812.09;5094434;28;20082;-62
2023/02/18 03:58:50;;;;;;;0.60;0.60;;;;;;;9.40;92.44;99820.56;5093694;28;20079;-63
2023/02/18 04:01:19;;;;;;;3.60;1.10;;;;;;;9.32;93.38;99828.13;5093766;28;20085;-63
2023/02/18 04:03:48;;;;;;;0.40;0.40;;;;;;;9.31;93.16;99821.31;5093920;28;20486;-63
2023/02/18 04:06:17;;;;;;;0.20;0.20;;;;;;;9.41;93.67;99822.22;5093984;28;20409;-62
2023/02/18 04:08:46;;;;;;;0.30;0.30;;;;;;;9.43;93.78;99826.50;5093859;28;20406;-63
2023/02/18 04:11:16;;;;;;;0.40;0.40;;;;;;;9.38;93.19;99833.25;5093904;28;20432;-63
2023/02/18 04:13:45;;;;;;;0.40;0.40;;;;;;;9.32;93.48;99845.97;5093666;28;20044;-63
2023/02/18 04:16:14;;;;;;;0.20;0.20;;;;;;;9.29;93.28;99838.28;5093629;28;20036;-63
2023/02/18 04:18:43;;;;;;;0.60;0.60;;;;;;;9.21;93.32;99829.75;5093286;28;20094;-64
2023/02/18 04:21:12;;;;;;;0.40;0.40;;;;;;;9.12;93.23;99819.50;5093576;28;20097;-63
2023/02/18 04:23:41;;;;;;;0.60;0.60;;;;;;;9.02;92.65;99815.16;5093445;28;20083;-63
2023/02/18 04:26:10;;;;;;;0.30;0.30;;;;;;;8.98;92.80;99815.13;5093533;28;20040;-63
2023/02/18 04:28:40;;;;;;;0.40;0.40;;;;;;;8.94;93.20;99815.97;5093397;28;20051;-64
2023/02/18 04:31:10;;;;;;;0.40;0.40;;;;;;;8.89;93.72;99821.03;5093500;28;20106;-63
2023/02/18 04:33:39;;;;;;;0.30;0.30;;;;;;;8.92;93.10;99815.09;5093460;28;20052;-63
2023/02/18 04:36:08;;;;;;;0.57;0.57;;;;;;;8.91;92.75;99810.84;5093765;28;20066;-63
2023/02/18 04:38:38;;;;;;;2.83;1.48;;;;;;;8.85;93.58;99804.03;5093654;28;20046;-64
2023/02/18 04:41:07;;;;;;;0.98;0.95;;;;;;;8.84;93.78;99811.63;5093926;28;20048;-64
2023/02/18 04:43:35;;;;;;;0.30;0.30;;;;;;;8.78;93.43;99809.91;5093400;28;20075;-64
2023/02/18 04:46:06;;;;;;;0.52;0.52;;;;;;;8.72;93.39;99803.06;5093594;28;20178;-63
2023/02/18 04:48:35;;;;;;;0.65;0.60;;;;;;;8.69;93.01;99797.09;5093633;28;20052;-64
2023/02/18 04:51:04;;;;;;;0.35;0.35;;;;;;;8.64;93.08;99812.31;5093643;28;20047;-65
2023/02/18 04:53:33;;;;;;;0.32;0.32;;;;;;;8.57;93.74;99817.31;5096455;28;20102;-65
2023/02/18 04:56:02;;;;;;;0.45;0.45;;;;;;;8.60;94.09;99819.91;5097443;28;20060;-65
2023/02/18 04:58:31;;;;;;;0.93;0.90;;;;;;;8.62;94.11;99825.84;5097398;28;20037;-65
2023/02/18 05:01:00;;;;;;;1.98;1.40;;;;;;;8.76;94.41;99819.19;5097318;28;20143;-65
2023/02/18 05:03:32;;;;;;;0.63;0.60;;;;;;;8.79;93.73;99819.22;5097055;28;20478;-65
2023/02/18 05:06:01;;;;;;;0.30;0.30;;;;;;;8.87;94.24;99825.25;5097003;28;20055;-65
2023/02/18 05:08:29;;;;;;;0.37;0.37;;;;;;;9.00;94.61;99824.50;5096880;28;20039;-65
2023/02/18 05:10:58;;;;;;;0.40;0.40;;;;;;;9.01;94.42;99825.34;5096818;28;20043;-63
2023/02/18 05:13:27;;;;;;;0.20;0.20;;;;;;;9.02;93.45;99827.06;5096835;28;20044;-63
2023/02/18 05:15:56;;;;;;;0.40;0.40;;;;;;;9.14;93.75;99825.44;5096785;28;20048;-63
2023/02/18 05:18:25;;;;;;;0.50;0.50;;;;;;;9.10;94.14;99811.00;5096594;28;20484;-63
2023/02/18 05:20:55;;;;;;;0.60;0.57;;;;;;;8.99;94.01;99825.34;5096961;28;20276;-63
2023/02/18 05:23:24;;;;;;;0.30;0.30;;;;;;;8.95;93.46;99831.25;5096680;28;20292;-65
2023/02/18 05:25:54;;;;;;;0.40;0.40;;;;;;;8.94;93.31;99834.66;5096534;28;20036;-63
2023/02/18 05:28:23;;;;;;;0.43;0.43;;;;;;;9.06;93.35;99829.66;5097103;28;20151;-63
2023/02/18 05:30:52;;;;;;;0.63;0.63;;;;;;;9.09;93.49;99829.69;5096467;28;20118;-63
2023/02/18 05:33:21;;;;;;;0.50;0.50;;;;;;;9.05;93.41;99833.03;5096475;28;20032;-65
2023/02/18 05:35:49;;;;;;;0.60;0.60;;;;;;;9.06;93.55;99832.19;5096704;28;20058;-65
2023/02/18 05:38:20;;;;;;;0.30;0.30;;;;;;;9.05;93.29;99829.63;5096300;28;20036;-65
2023/02/18 05:40:48;;;;;;;0.30;0.30;;;;;;;8.99;92.89;99833.00;5096584;28;20097;-64
2023/02/18 05:43:17;;;;;;;0.43;0.43;;;;;;;8.88;93.03;99838.84;5096281;28;20127;-64
2023/02/18 05:45:46;;;;;;;0.30;0.30;;;;;;;8.76;93.41;99844.66;5096424;28;20078;-65
2023/02/18 05:48:15;;;;;;;0.20;0.20;;;;;;;8.71;92.90;99846.28;5096169;28;20326;-65
2023/02/18 05:50:44;;;;;;;0.27;0.27;;;;;;;8.78;93.47;99843.00;5096392;28;20089;-69
2023/02/18 05:53:13;;;;;;;0.57;0.57;;;;;;;8.72;92.90;99836.16;5095946;28;20307;-64
2023/02/18 05:55:46;;;;;;;0.20;0.20;;;;;;;8.77;93.81;99847.22;5096051;28;20055;-64
2023/02/18 05:58:15;;;;;;;0.52;0.52;;;;;;;8.79;93.47;99844.69;5095995;28;20052;-63
2023/02/18 06:00:44;;;;;;;0.80;0.80;;;;;;;8.72;93.07;99848.00;5095896;28;20075;-64
2023/02/18 06:03:13;;;;;;;0.45;0.45;;;;;;;8.71;93.90;99841.19;5095933;28;20136;-64
2023/02/18 06:05:42;;;;;;;0.77;0.77;;;;;;;8.70;93.05;99844.59;5095742;28;20058;-66
2023/02/18 06:08:11;;;;;;;0.40;0.40;;;;;;;8.72;93.43;99853.09;5096045;28;20102;-65
2023/02/18 06:10:40;;;;;;;0.40;0.40;;;;;;;8.73;93.27;99844.63;5095671;28;20094;-65
2023/02/18 06:13:11;;;;;;;0.40;0.40;;;;;;;8.79;93.26;99839.59;5095974;28;20059;-65
2023/02/18 06:15:40;;;;;;;0.70;0.70;;;;;;;8.85;93.48;99844.75;5096151;28;20425;-64
2023/02/18 06:18:09;;;;;;;0.63;0.63;;;;;;;8.89;93.52;99840.53;5095552;28;20066;-64
2023/02/18 06:20:39;;;;;;;0.50;0.50;;;;;;;8.91;94.00;99844.78;5095486;28;20047;-65
2023/02/18 06:23:08;;;;;;;0.75;0.75;;;;;;;8.92;94.06;99860.91;5095816;28;20048;-65
2023/02/18 06:25:39;;;;;;;1.48;0.90;;;;;;;8.85;93.23;99854.94;5095580;28;20040;-64
2023/02/18 06:28:07;;;;;;;0.40;0.40;;;;;;;8.79;93.22;99862.50;5095399;28;20044;-64
2023/02/18 06:30:38;;;;;;;0.33;0.33;;;;;;;8.76;93.58;99849.72;5095965;28;20044;-64
2023/02/18 06:33:07;;;;;;;1.30;1.10;;;;;;;8.72;93.52;99859.06;5095317;28;20048;-64
2023/02/18 06:35:35;;;;;;;0.50;0.50;;;;;;;8.73;93.34;99852.28;5095257;28;20044;-64
2023/02/18 06:38:04;;;;;;;0.43;0.43;;;;;;;8.79;93.67;99849.78;5095345;28;20397;-64
2023/02/18 06:40:33;;;;;;;0.60;0.60;;;;;;;8.88;93.85;99849.84;5095205;28;20068;-65
2023/02/18 06:43:03;;;;;;;1.42;1.33;;;;;;;9.01;93.88;99841.47;5095104;28;20156;-64
2023/02/18 06:45:31;;;;;;;0.57;0.57;;;;;;;9.08;94.35;99853.41;5093770;28;20039;-65
2023/02/18 06:48:02;;;;;;;0.70;0.70;;;;;;;9.15;94.11;99849.22;5094856;28;20074;-64
2023/02/18 06:50:31;;;;;;;3.30;0.90;;;;;;;9.19;94.01;99851.78;5094960;28;20143;-64
2023/02/18 06:53:00;;;;;;;0.50;0.50;;;;;;;9.26;93.46;99853.53;5094815;28;20073;-64
2023/02/18 06:55:28;;;;;;;0.33;0.33;;;;;;;9.37;93.91;99851.09;5095153;28;20036;-63
2023/02/18 06:57:58;;;;;;;0.40;0.40;;;;;;;9.44;93.99;99853.69;5094729;28;20040;-66
2023/02/18 07:00:27;;;;;;;0.22;0.22;;;;;;;9.58;93.62;99855.44;5104505;28;20032;-65
2023/02/18 07:02:56;;;;;;;0.70;0.70;;;;;;;9.63;93.59;99849.56;5114961;28;20035;-65
2023/02/18 07:05:27;;;;;;;0.43;0.43;;;;;;;9.66;93.73;99861.47;5114903;28;20039;-65
2023/02/18 07:07:55;;;;;;;0.52;0.52;;;;;;;9.72;93.68;99856.38;5115326;27;20460;-65
2023/02/18 07:10:24;;;;;;;0.35;0.35;;;;;;;9.76;93.46;99853.03;5114910;28;20122;-64
2023/02/18 07:12:53;;;;;;;0.55;0.55;;;;;;;9.78;93.24;99858.97;5115775;28;20386;-64
2023/02/18 07:15:23;;;;;;;1.23;0.73;;;;;;;9.80;92.74;99862.38;5114501;28;20493;-66
2023/02/18 07:17:52;;;;;;;0.22;0.22;;;;;;;9.83;92.92;99872.59;5114728;28;20039;-65
2023/02/18 07:20:22;;;;;;;0.95;0.85;;;;;;;9.91;92.53;99865.84;5114710;28;20039;-64
2023/02/18 07:22:52;;;;;;;0.55;0.55;;;;;;;9.92;92.36;99872.63;5114653;27;20562;-65
2023/02/18 07:25:21;;;;;;;0.30;0.30;;;;;;;9.77;92.25;99850.47;5114629;28;20052;-66
2023/02/18 07:27:51;;;;;;;0.47;0.47;;;;;;;9.89;92.14;99872.63;5114631;28;20055;-65
2023/02/18 07:30:21;;;;;;;0.47;0.47;;;;;;;9.88;91.88;99876.03;5114917;28;20036;-65
2023/02/18 07:32:50;;;;;;;0.40;0.40;;;;;;;9.87;91.29;99869.22;5114371;28;20040;-65
2023/02/18 07:35:20;;;;;;;0.27;0.27;;;;;;;9.85;92.00;99868.34;5114745;28;20443;-64
2023/02/18 07:37:51;;;;;;;0.40;0.40;;;;;;;9.86;91.61;99867.53;5114919;28;20401;-64
2023/02/18 07:40:21;;;;;;;0.40;0.40;;;;;;;9.97;91.54;99881.16;5114703;28;20098;-65
2023/02/18 07:42:51;;;;;;;0.40;0.40;;;;;;;10.04;91.31;99877.81;5115031;28;20043;-65
2023/02/18 07:45:20;;;;;;;0.50;0.50;;;;;;;10.05;91.25;99880.34;5114186;28;20039;-65
2023/02/18 07:47:49;;;;;;;0.50;0.50;;;;;;;10.13;91.05;99862.56;5114065;28;20035;-65
2023/02/18 07:50:18;;;;;;;0.30;0.30;;;;;;;10.17;90.83;99871.94;5114266;28;20113;-65
2023/02/18 07:52:46;;;;;;;0.30;0.30;;;;;;;10.18;90.36;99870.22;5114220;28;20040;-65
2023/02/18 07:55:17;;;;;;;0.47;0.47;;;;;;;10.23;90.27;99863.44;5114122;28;20318;-65
2023/02/18 08:00:24;;;;;;;0.30;0.30;;;;;;;10.44;89.50;99859.25;5114747;28;20078;-65
2023/02/18 08:02:53;;;;;;;1.50;0.67;;;;;;;10.51;89.73;99871.19;5113989;28;20114;-66
2023/02/18 08:05:22;;;;;;;0.25;0.25;;;;;;;10.57;89.03;99861.00;5114058;28;20050;-65
2023/02/18 08:07:51;;;;;;;0.30;0.30;;;;;;;10.67;88.85;99862.75;5113929;28;20036;-66
2023/02/18 08:10:21;;;;;;;0.30;0.30;;;;;;;10.73;88.76;99857.63;5113904;28;20382;-65
2023/02/18 08:12:50;;;;;;;0.30;0.30;;;;;;;10.75;88.88;99853.38;5114051;28;20556;-66
2023/02/18 08:15:19;;;;;;;0.30;0.30;;;;;;;10.83;88.56;99852.53;5114113;28;20505;-65
2023/02/18 08:17:48;;;;;;;1.45;1.30;;;;;;;10.94;88.60;99850.84;5113715;28;20062;-66
2023/02/18 08:20:17;;;;;;;0.20;0.20;;;;;;;10.99;88.08;99847.44;5113889;28;20123;-66
2023/02/18 08:22:45;;;;;;;0.40;0.40;;;;;;;11.03;87.79;99840.63;5113885;28;20040;-65
2023/02/18 08:25:14;;;;;;;0.32;0.32;;;;;;;11.07;88.00;99839.75;5114161;28;20043;-66
2023/02/18 08:27:58;;;;;;;0.47;0.47;;;;;;;11.18;87.79;99845.75;5116380;28;20493;-66
2023/02/18 08:30:27;;;;;;;0.52;0.52;;;;;;;11.23;87.65;99838.91;5118132;28;20104;-66
2023/02/18 08:32:56;;;;;;;0.30;0.30;;;;;;;11.31;87.41;99837.19;5118230;28;20439;-65
2023/02/18 08:35:25;;;;;;;0.63;0.63;;;;;;;11.49;87.02;99842.31;5117924;28;20044;-66
2023/02/18 08:37:53;;;;;;;0.30;0.30;;;;;;;11.58;86.61;99838.84;5117872;28;20067;-66
2023/02/18 08:40:24;;;;;;;0.50;0.50;;;;;;;11.61;86.26;99837.16;5117559;28;20044;-66
2023/02/18 08:42:53;;;;;;;0.30;0.30;;;;;;;11.63;86.16;99844.81;5118103;28;20139;-66
2023/02/18 08:45:23;;;;;;;0.50;0.50;;;;;;;11.63;85.97;99845.66;5117783;28;20035;-66
2023/02/18 08:47:52;;;;;;;0.40;0.40;;;;;;;11.68;85.72;99848.25;5117939;28;20040;-65
2023/02/18 08:50:40;;;;;;;0.43;0.43;;;;;;;11.60;85.21;99840.56;5117672;28;20055;-67
2023/02/18 08:53:09;;;;;;;0.30;0.30;;;;;;;11.57;85.10;99845.66;5117666;28;20043;-66
2023/02/18 08:55:41;;;;;;;0.35;0.35;;;;;;;11.49;85.07;99852.53;5117846;28;20058;-66
2023/02/18 08:58:10;;;;;;;0.30;0.30;;;;;;;11.40;85.14;99857.63;5117888;28;20078;-65
2023/02/18 09:00:42;;;;;;;0.30;0.30;;;;;;;11.41;85.36;99852.53;5117417;28;20505;-66
2023/02/18 09:03:14;;;;;;;1.58;0.55;;;;;;;11.36;85.15;99855.94;5117760;28;20051;-66
2023/02/18 09:05:43;;;;;;;0.30;0.30;;;;;;;11.31;85.00;99860.19;5117608;28;20052;-65
2023/02/18 09:08:11;;;;;;;0.23;0.23;;;;;;;11.27;85.07;99861.06;5117217;28;20043;-66
2023/02/18 09:10:40;;;;;;;0.40;0.40;;;;;;;11.26;85.27;99849.13;5117573;28;20276;-66
2023/02/18 09:13:09;;;;;;;0.40;0.40;;;;;;;11.22;85.28;99852.53;5117714;28;20048;-67
2023/02/18 09:15:38;;;;;;;0.40;0.40;;;;;;;11.19;85.35;99847.44;5117146;28;20036;-67
2023/02/18 09:18:08;;;;;;;0.40;0.40;;;;;;;11.17;85.53;99844.03;5116678;28;20055;-66
2023/02/18 09:20:36;;;;;;;0.45;0.45;;;;;;;11.15;85.37;99848.28;5117117;28;20047;-67
2023/02/18 09:23:05;;;;;;;0.30;0.30;;;;;;;11.17;85.28;99849.13;5117288;28;20101;-66
2023/02/18 09:25:34;;;;;;;0.33;0.33;;;;;;;11.17;84.97;99851.69;5116974;28;20040;-65
2023/02/18 09:28:03;;;;;;;0.30;0.30;;;;;;;11.17;84.99;99851.69;5117061;27;20221;-65
2023/02/18 09:30:31;;;;;;;0.50;0.50;;;;;;;11.11;84.85;99847.44;5116745;28;20131;-66
2023/02/18 09:33:00;;;;;;;0.40;0.40;;;;;;;11.11;84.72;99844.03;5116856;28;20039;-65
2023/02/18 09:35:31;;;;;;;0.77;0.75;;;;;;;11.11;84.78;99844.03;5116814;28;20393;-65
2023/02/18 09:38:01;;;;;;;0.28;0.28;;;;;;;11.10;84.77;99842.34;5116152;28;20067;-66
2023/02/18 09:40:36;;;;;;;0.20;0.20;;;;;;;11.09;84.73;99838.06;5116695;28;20138;-65
2023/02/18 09:43:06;;;;;;;0.30;0.30;;;;;;;11.10;84.72;99838.06;5117019;28;20092;-65
2023/02/18 09:45:35;;;;;;;0.30;0.30;;;;;;;11.11;84.80;99838.94;5116605;28;20048;-65
2023/02/18 09:48:05;;;;;;;0.28;0.28;;;;;;;11.10;84.75;99842.34;5116358;28;20035;-67
2023/02/18 09:50:35;;;;;;;0.40;0.40;;;;;;;11.09;84.93;99845.72;5116518;28;20043;-65
2023/02/18 09:53:04;;;;;;;0.30;0.30;;;;;;;11.05;84.80;99838.91;5116441;28;20092;-65
2023/02/18 09:55:38;;;;;;;0.20;0.20;;;;;;;11.10;84.73;99840.63;5116425;28;20047;-66
2023/02/18 09:58:13;;;;;;;0.20;0.20;;;;;;;11.10;84.80;99832.13;5116717;28;20067;-65
2023/02/18 10:00:47;;;;;;;0.32;0.32;;;;;;;11.18;84.89;99841.47;5116629;28;20383;-65
2023/02/18 10:03:18;;;;;;;0.25;0.25;;;;;;;11.27;84.88;99831.25;5116221;28;20040;-66
2023/02/18 10:05:58;;;;;;;0.45;0.45;;;;;;;11.39;84.94;99823.56;5116247;28;20175;-66
2023/02/18 10:08:29;;;;;;;0.30;0.30;;;;;;;11.54;85.06;99820.09;5116165;28;20044;-66
2023/02/18 10:10:58;;;;;;;0.32;0.32;;;;;;;11.65;85.04;99823.50;5116068;28;20044;-66
2023/02/18 10:13:30;;;;;;;1.27;1.15;;;;;;;11.75;84.97;99825.22;5116426;28;20149;-66
2023/02/18 10:16:00;;;;;;;0.45;0.45;;;;;;;11.82;84.99;99821.78;5116277;28;20493;-66
2023/02/18 10:18:31;;;;;;;0.50;0.50;;;;;;;11.88;84.84;99816.63;5116019;28;20055;-66
2023/02/18 10:21:07;;;;;;;0.43;0.43;;;;;;;11.96;84.54;99814.91;5116223;27;20513;-65
2023/02/18 10:23:38;;;;;;;0.20;0.20;;;;;;;12.02;84.21;99804.63;5115946;28;20134;-65
2023/02/18 10:26:15;;;;;;;0.40;0.40;;;;;;;12.03;84.15;99801.22;5116171;28;20050;-66
2023/02/18 10:28:45;;;;;;;0.20;0.20;;;;;;;12.05;84.19;99804.63;5115633;28;20097;-66
2023/02/18 10:31:20;;;;;;;0.40;0.40;;;;;;;12.06;84.36;99801.22;5115270;28;20054;-65
2023/02/18 10:33:57;;;;;;;0.30;0.30;;;;;;;12.04;84.37;99795.22;5116217;28;20048;-66
2023/02/18 10:36:34;;;;;;;0.30;0.30;;;;;;;12.01;84.63;99796.97;5116022;28;20062;-65
2023/02/18 10:39:31;;;;;;;0.95;0.95;;;;;;;12.02;84.43;99789.28;5115578;28;20130;-66
2023/02/18 10:42:14;;;;;;;0.25;0.25;;;;;;;11.98;84.40;99785.03;5110438;28;20127;-66
2023/02/18 10:44:55;;;;;;;0.40;0.40;;;;;;;11.96;84.36;99785.91;5115475;28;20048;-66
2023/02/18 10:47:39;;;;;;;0.50;0.50;;;;;;;11.98;83.80;99776.53;5115297;28;20142;-66
2023/02/18 10:50:13;;;;;;;0.47;0.47;;;;;;;11.95;82.87;99773.97;5114460;28;20043;-66
2023/02/18 10:52:47;;;;;;;0.40;0.40;;;;;;;11.94;82.23;99759.50;5115453;28;20043;-66
2023/02/18 10:55:18;;;;;;;0.35;0.35;;;;;;;11.95;81.92;99767.16;5115524;28;20507;-65
2023/02/18 10:57:50;;;;;;;0.30;0.30;;;;;;;11.94;81.16;99768.03;5115468;27;20505;-66
2023/02/18 11:00:22;;;;;;;0.30;0.30;;;;;;;11.93;81.00;99771.44;5114384;28;20051;-66
2023/02/18 11:03:16;;;;;;;0.43;0.40;;;;;;;11.91;81.12;99775.69;5115519;28;20481;-65
2023/02/18 11:05:46;;;;;;;0.50;0.50;;;;;;;11.91;81.06;99760.34;5115385;28;20047;-65
2023/02/18 11:08:18;;;;;;;;;;;;;;;11.88;81.04;99775.72;5115335;28;20047;-65
2023/02/18 11:10:50;;;;;;;0.40;0.40;;;;;;;11.84;81.26;99768.91;5114925;28;19920;-66
2023/02/18 11:13:26;;;;;;;0.50;0.50;;;;;;;11.78;81.68;99763.81;5115470;28;20058;-66
2023/02/18 11:15:58;;;;;;;0.60;0.60;;;;;;;11.66;82.66;99761.28;5114889;27;20052;-66
2023/02/18 11:18:33;;;;;;;0.43;0.43;;;;;;;11.61;83.11;99765.59;5114785;28;20040;-65
2023/02/18 11:21:05;;;;;;;0.20;0.20;;;;;;;11.51;83.73;99761.34;5114768;28;20138;-65
2023/02/18 11:23:48;;;;;;;0.75;0.75;;;;;;;11.37;84.73;99748.59;5114704;28;20043;-65
2023/02/18 11:26:22;;;;;;;0.80;0.80;;;;;;;11.38;85.20;99757.13;5115060;28;20048;-66
2023/02/18 11:29:00;;;;;;;1.05;0.82;;;;;;;11.31;85.81;99750.31;5114488;28;20039;-65
2023/02/18 11:31:41;;;;;;;0.32;0.32;;;;;;;11.16;86.79;99729.91;5114630;28;20043;-65
2023/02/18 11:34:18;;;;;;;0.50;0.50;;;;;;;11.17;86.98;99732.50;5114537;28;20043;-65
2023/02/18 11:36:48;;;;;;;0.20;0.20;;;;;;;11.14;87.27;99726.53;5114560;28;20083;-65
2023/02/18 11:39:23;;;;;;;0.70;0.70;;;;;;;11.10;87.89;99724.84;5114540;28;20074;-65
2023/02/18 11:41:58;;;;;;;0.50;0.50;;;;;;;11.08;88.00;99727.41;5114164;28;20131;-65
2023/02/18 11:44:33;;;;;;;0.40;0.40;;;;;;;11.08;88.15;99727.41;5114446;28;20052;-66
2023/02/18 11:47:03;;;;;;;0.32;0.32;;;;;;;11.07;88.45;99729.94;5114569;28;20065;-65
2023/02/18 11:49:35;;;;;;;0.50;0.50;;;;;;;11.05;88.45;99721.44;5114269;28;20083;-65
2023/02/18 11:52:12;;;;;;;0.63;0.45;;;;;;;11.02;88.48;99708.66;5114252;28;20135;-65
2023/02/18 11:54:42;;;;;;;0.60;0.60;;;;;;;10.97;88.74;99712.94;5114203;28;20044;-65
2023/02/18 11:57:14;;;;;;;1.88;0.80;;;;;;;10.95;88.67;99709.53;5114214;28;20048;-65
2023/02/18 11:59:44;;;;;;;0.40;0.40;;;;;;;10.93;88.70;99701.88;5114430;28;20122;-65
2023/02/18 12:02:31;;;;;;;0.28;0.28;;;;;;;10.96;89.21;99706.13;5113940;28;20164;-66
2023/02/18 12:05:05;;;;;;;0.57;0.57;;;;;;;10.94;89.19;99702.75;5114461;28;20059;-65